sensor_id;sensor_type;location;lat;lon;timestamp;P1;durP1;ratioP1;P2;durP2;ratioP2
37955;SDS011;23776;51.592;7.180;2023-10-13T00:00:41;29.63;;;15.95;;
37955;SDS011;23776;51.592;7.180;2023-10-13T00:03:08;31.17;;;14.93;;
37955;SDS011;23776;51.592;7.180;2023-10-13T00:05:40;31.83;;;15.80;;
37955;SDS011;23776;51.592;7.180;2023-10-13T00:08:08;30.30;;;15.43;;
37955;SDS011;23776;51.592;7.180;2023-10-13T00:10:34;33.80;;;15.57;;
37955;SDS011;23776;51.592;7.180;2023-10-13T00:13:00;36.70;;;16.00;;
37955;SDS011;23776;51.592;7.180;2023-10-13T00:15:32;38.70;;;16.38;;
37955;SDS011;23776;51.592;7.180;2023-10-13T00:18:05;32.72;;;16.85;;
37955;SDS011;23776;51.592;7.180;2023-10-13T00:20:40;28.67;;;14.02;;
37955;SDS011;23776;51.592;7.180;2023-10-13T00:23:13;25.85;;;13.93;;
37955;SDS011;23776;51.592;7.180;2023-10-13T00:25:38;30.55;;;14.30;;
37955;SDS011;23776;51.592;7.180;2023-10-13T00:28:16;29.40;;;13.73;;
37955;SDS011;23776;51.592;7.180;2023-10-13T00:30:51;30.08;;;14.43;;
37955;SDS011;23776;51.592;7.180;2023-10-13T00:33:24;29.27;;;15.23;;
37955;SDS011;23776;51.592;7.180;2023-10-13T00:35:50;26.27;;;14.65;;
37955;SDS011;23776;51.592;7.180;2023-10-13T00:38:22;31.38;;;14.93;;
37955;SDS011;23776;51.592;7.180;2023-10-13T00:40:49;34.65;;;14.75;;
37955;SDS011;23776;51.592;7.180;2023-10-13T00:43:20;24.30;;;13.38;;
37955;SDS011;23776;51.592;7.180;2023-10-13T00:45:48;26.58;;;13.88;;
37955;SDS011;23776;51.592;7.180;2023-10-13T00:48:23;35.15;;;13.57;;
37955;SDS011;23776;51.592;7.180;2023-10-13T00:50:55;28.13;;;12.88;;
37955;SDS011;23776;51.592;7.180;2023-10-13T00:53:22;34.50;;;14.05;;
37955;SDS011;23776;51.592;7.180;2023-10-13T00:55:50;26.05;;;13.23;;
37955;SDS011;23776;51.592;7.180;2023-10-13T00:58:16;22.17;;;11.73;;
37955;SDS011;23776;51.592;7.180;2023-10-13T01:00:47;28.27;;;13.50;;
37955;SDS011;23776;51.592;7.180;2023-10-13T01:03:21;24.38;;;12.23;;
37955;SDS011;23776;51.592;7.180;2023-10-13T01:05:51;21.17;;;11.25;;
37955;SDS011;23776;51.592;7.180;2023-10-13T01:08:19;20.10;;;11.38;;
37955;SDS011;23776;51.592;7.180;2023-10-13T01:10:59;26.13;;;12.73;;
37955;SDS011;23776;51.592;7.180;2023-10-13T01:13:25;25.50;;;12.00;;
37955;SDS011;23776;51.592;7.180;2023-10-13T01:15:52;20.45;;;11.25;;
37955;SDS011;23776;51.592;7.180;2023-10-13T01:18:17;22.45;;;11.85;;
37955;SDS011;23776;51.592;7.180;2023-10-13T01:20:43;20.00;;;11.02;;
37955;SDS011;23776;51.592;7.180;2023-10-13T01:23:11;26.67;;;11.68;;
37955;SDS011;23776;51.592;7.180;2023-10-13T01:25:43;21.13;;;10.87;;
37955;SDS011;23776;51.592;7.180;2023-10-13T01:28:10;23.58;;;12.55;;
37955;SDS011;23776;51.592;7.180;2023-10-13T01:30:40;28.92;;;12.52;;
37955;SDS011;23776;51.592;7.180;2023-10-13T01:33:07;18.20;;;9.80;;
37955;SDS011;23776;51.592;7.180;2023-10-13T01:35:34;25.65;;;11.02;;
37955;SDS011;23776;51.592;7.180;2023-10-13T01:38:07;21.65;;;11.48;;
37955;SDS011;23776;51.592;7.180;2023-10-13T01:40:34;19.67;;;9.65;;
37955;SDS011;23776;51.592;7.180;2023-10-13T01:43:00;21.27;;;11.27;;
37955;SDS011;23776;51.592;7.180;2023-10-13T01:45:26;20.33;;;11.02;;
37955;SDS011;23776;51.592;7.180;2023-10-13T01:47:55;20.05;;;11.43;;
37955;SDS011;23776;51.592;7.180;2023-10-13T01:50:21;27.45;;;12.15;;
37955;SDS011;23776;51.592;7.180;2023-10-13T01:52:54;27.85;;;12.48;;
37955;SDS011;23776;51.592;7.180;2023-10-13T01:55:40;22.00;;;11.57;;
37955;SDS011;23776;51.592;7.180;2023-10-13T01:58:12;25.23;;;12.55;;
37955;SDS011;23776;51.592;7.180;2023-10-13T02:00:42;32.90;;;12.48;;
37955;SDS011;23776;51.592;7.180;2023-10-13T02:03:09;23.08;;;12.20;;
37955;SDS011;23776;51.592;7.180;2023-10-13T02:05:39;24.63;;;11.90;;
37955;SDS011;23776;51.592;7.180;2023-10-13T02:08:08;20.63;;;11.20;;
37955;SDS011;23776;51.592;7.180;2023-10-13T02:10:36;27.38;;;13.15;;
37955;SDS011;23776;51.592;7.180;2023-10-13T02:13:08;24.27;;;11.13;;
37955;SDS011;23776;51.592;7.180;2023-10-13T02:15:40;22.15;;;11.73;;
37955;SDS011;23776;51.592;7.180;2023-10-13T02:18:08;21.98;;;11.48;;
37955;SDS011;23776;51.592;7.180;2023-10-13T02:20:34;21.70;;;11.00;;
37955;SDS011;23776;51.592;7.180;2023-10-13T02:23:06;23.02;;;11.18;;
37955;SDS011;23776;51.592;7.180;2023-10-13T02:25:35;21.67;;;12.00;;
37955;SDS011;23776;51.592;7.180;2023-10-13T02:28:11;19.13;;;10.65;;
37955;SDS011;23776;51.592;7.180;2023-10-13T02:30:43;25.90;;;11.43;;
37955;SDS011;23776;51.592;7.180;2023-10-13T02:33:15;27.73;;;13.30;;
37955;SDS011;23776;51.592;7.180;2023-10-13T02:35:46;23.38;;;10.60;;
37955;SDS011;23776;51.592;7.180;2023-10-13T02:38:18;24.08;;;12.27;;
37955;SDS011;23776;51.592;7.180;2023-10-13T02:41:15;26.33;;;12.50;;
37955;SDS011;23776;51.592;7.180;2023-10-13T02:44:06;24.42;;;11.45;;
37955;SDS011;23776;51.592;7.180;2023-10-13T02:46:33;23.27;;;11.88;;
37955;SDS011;23776;51.592;7.180;2023-10-13T02:49:05;28.98;;;11.82;;
37955;SDS011;23776;51.592;7.180;2023-10-13T02:51:38;18.80;;;10.60;;
37955;SDS011;23776;51.592;7.180;2023-10-13T02:54:07;31.15;;;12.88;;
37955;SDS011;23776;51.592;7.180;2023-10-13T02:56:35;26.30;;;12.82;;
37955;SDS011;23776;51.592;7.180;2023-10-13T02:59:02;22.75;;;11.57;;
37955;SDS011;23776;51.592;7.180;2023-10-13T03:01:34;20.35;;;10.55;;
37955;SDS011;23776;51.592;7.180;2023-10-13T03:04:01;19.75;;;11.40;;
37955;SDS011;23776;51.592;7.180;2023-10-13T03:06:28;24.45;;;10.80;;
37955;SDS011;23776;51.592;7.180;2023-10-13T03:09:00;24.63;;;9.85;;
37955;SDS011;23776;51.592;7.180;2023-10-13T03:11:42;25.52;;;12.15;;
37955;SDS011;23776;51.592;7.180;2023-10-13T03:14:19;19.88;;;10.70;;
37955;SDS011;23776;51.592;7.180;2023-10-13T03:16:56;20.65;;;11.05;;
37955;SDS011;23776;51.592;7.180;2023-10-13T03:19:42;25.30;;;10.75;;
37955;SDS011;23776;51.592;7.180;2023-10-13T03:22:11;24.42;;;12.38;;
37955;SDS011;23776;51.592;7.180;2023-10-13T03:24:38;20.48;;;12.20;;
37955;SDS011;23776;51.592;7.180;2023-10-13T03:27:10;26.02;;;12.68;;
37955;SDS011;23776;51.592;7.180;2023-10-13T03:29:40;22.45;;;11.82;;
37955;SDS011;23776;51.592;7.180;2023-10-13T03:32:09;22.48;;;11.07;;
37955;SDS011;23776;51.592;7.180;2023-10-13T03:34:45;20.83;;;11.27;;
37955;SDS011;23776;51.592;7.180;2023-10-13T03:37:19;22.20;;;10.40;;
37955;SDS011;23776;51.592;7.180;2023-10-13T03:42:45;24.00;;;11.45;;
37955;SDS011;23776;51.592;7.180;2023-10-13T03:45:36;24.15;;;11.63;;
37955;SDS011;23776;51.592;7.180;2023-10-13T03:48:13;22.52;;;11.48;;
37955;SDS011;23776;51.592;7.180;2023-10-13T03:50:51;27.17;;;12.75;;
37955;SDS011;23776;51.592;7.180;2023-10-13T03:53:38;23.65;;;11.52;;
37955;SDS011;23776;51.592;7.180;2023-10-13T03:56:20;29.45;;;13.38;;
37955;SDS011;23776;51.592;7.180;2023-10-13T03:59:03;29.10;;;13.82;;
37955;SDS011;23776;51.592;7.180;2023-10-13T04:01:37;23.65;;;13.43;;
37955;SDS011;23776;51.592;7.180;2023-10-13T04:04:11;22.73;;;12.02;;
37955;SDS011;23776;51.592;7.180;2023-10-13T04:06:37;31.13;;;13.30;;
37955;SDS011;23776;51.592;7.180;2023-10-13T04:09:16;23.50;;;12.23;;
37955;SDS011;23776;51.592;7.180;2023-10-13T04:14:31;24.60;;;11.80;;
37955;SDS011;23776;51.592;7.180;2023-10-13T04:17:17;25.48;;;12.00;;
37955;SDS011;23776;51.592;7.180;2023-10-13T04:19:51;24.92;;;12.48;;
37955;SDS011;23776;51.592;7.180;2023-10-13T04:22:30;20.20;;;12.23;;
37955;SDS011;23776;51.592;7.180;2023-10-13T04:28:02;20.77;;;11.15;;
37955;SDS011;23776;51.592;7.180;2023-10-13T04:30:38;25.40;;;12.55;;
37955;SDS011;23776;51.592;7.180;2023-10-13T04:33:25;26.67;;;12.68;;
37955;SDS011;23776;51.592;7.180;2023-10-13T04:36:15;24.75;;;13.27;;
37955;SDS011;23776;51.592;7.180;2023-10-13T04:38:47;25.23;;;11.57;;
37955;SDS011;23776;51.592;7.180;2023-10-13T04:44:22;21.05;;;11.68;;
37955;SDS011;23776;51.592;7.180;2023-10-13T04:47:08;20.75;;;12.10;;
37955;SDS011;23776;51.592;7.180;2023-10-13T04:49:42;29.10;;;12.85;;
37955;SDS011;23776;51.592;7.180;2023-10-13T04:52:12;21.45;;;12.18;;
37955;SDS011;23776;51.592;7.180;2023-10-13T04:54:41;31.95;;;13.45;;
37955;SDS011;23776;51.592;7.180;2023-10-13T04:57:18;24.58;;;11.20;;
37955;SDS011;23776;51.592;7.180;2023-10-13T04:59:57;24.27;;;12.20;;
37955;SDS011;23776;51.592;7.180;2023-10-13T05:02:40;19.90;;;11.60;;
37955;SDS011;23776;51.592;7.180;2023-10-13T05:05:19;23.38;;;11.32;;
37955;SDS011;23776;51.592;7.180;2023-10-13T05:08:04;30.33;;;12.98;;
37955;SDS011;23776;51.592;7.180;2023-10-13T05:10:48;23.25;;;13.20;;
37955;SDS011;23776;51.592;7.180;2023-10-13T05:13:32;20.67;;;10.95;;
37955;SDS011;23776;51.592;7.180;2023-10-13T05:16:16;26.52;;;13.35;;
37955;SDS011;23776;51.592;7.180;2023-10-13T05:19:00;27.85;;;12.90;;
37955;SDS011;23776;51.592;7.180;2023-10-13T05:24:28;22.20;;;11.25;;
37955;SDS011;23776;51.592;7.180;2023-10-13T05:27:12;24.88;;;11.73;;
37955;SDS011;23776;51.592;7.180;2023-10-13T05:29:57;28.05;;;12.27;;
37955;SDS011;23776;51.592;7.180;2023-10-13T05:32:41;26.27;;;11.63;;
37955;SDS011;23776;51.592;7.180;2023-10-13T05:35:25;24.85;;;11.52;;
37955;SDS011;23776;51.592;7.180;2023-10-13T05:38:09;24.67;;;12.52;;
37955;SDS011;23776;51.592;7.180;2023-10-13T05:40:55;23.83;;;11.60;;
37955;SDS011;23776;51.592;7.180;2023-10-13T05:43:40;23.05;;;11.85;;
37955;SDS011;23776;51.592;7.180;2023-10-13T05:46:24;24.63;;;11.65;;
37955;SDS011;23776;51.592;7.180;2023-10-13T05:48:50;18.55;;;11.05;;
37955;SDS011;23776;51.592;7.180;2023-10-13T05:51:29;25.15;;;11.63;;
37955;SDS011;23776;51.592;7.180;2023-10-13T05:54:08;23.98;;;12.15;;
37955;SDS011;23776;51.592;7.180;2023-10-13T05:56:35;26.30;;;12.50;;
37955;SDS011;23776;51.592;7.180;2023-10-13T05:59:19;23.25;;;12.10;;
37955;SDS011;23776;51.592;7.180;2023-10-13T06:02:03;30.38;;;13.00;;
37955;SDS011;23776;51.592;7.180;2023-10-13T06:04:48;24.02;;;10.88;;
37955;SDS011;23776;51.592;7.180;2023-10-13T06:07:32;24.15;;;11.30;;
37955;SDS011;23776;51.592;7.180;2023-10-13T06:10:18;23.77;;;10.82;;
37955;SDS011;23776;51.592;7.180;2023-10-13T06:13:03;19.08;;;10.60;;
37955;SDS011;23776;51.592;7.180;2023-10-13T06:15:47;21.70;;;11.52;;
37955;SDS011;23776;51.592;7.180;2023-10-13T06:18:31;22.00;;;11.05;;
37955;SDS011;23776;51.592;7.180;2023-10-13T06:21:15;20.10;;;10.27;;
37955;SDS011;23776;51.592;7.180;2023-10-13T06:23:59;17.50;;;9.13;;
37955;SDS011;23776;51.592;7.180;2023-10-13T06:26:43;18.48;;;8.88;;
37955;SDS011;23776;51.592;7.180;2023-10-13T06:29:30;13.82;;;8.38;;
37955;SDS011;23776;51.592;7.180;2023-10-13T06:31:56;21.63;;;9.18;;
37955;SDS011;23776;51.592;7.180;2023-10-13T06:34:23;24.00;;;8.82;;
37955;SDS011;23776;51.592;7.180;2023-10-13T06:37:03;18.38;;;9.65;;
37955;SDS011;23776;51.592;7.180;2023-10-13T06:39:47;24.83;;;9.25;;
37955;SDS011;23776;51.592;7.180;2023-10-13T06:42:13;25.23;;;7.78;;
37955;SDS011;23776;51.592;7.180;2023-10-13T06:44:40;16.55;;;8.77;;
37955;SDS011;23776;51.592;7.180;2023-10-13T06:47:10;20.27;;;8.30;;
37955;SDS011;23776;51.592;7.180;2023-10-13T06:49:36;19.23;;;8.00;;
37955;SDS011;23776;51.592;7.180;2023-10-13T06:52:04;26.52;;;9.93;;
37955;SDS011;23776;51.592;7.180;2023-10-13T06:54:32;17.02;;;8.43;;
37955;SDS011;23776;51.592;7.180;2023-10-13T06:57:02;20.25;;;8.30;;
37955;SDS011;23776;51.592;7.180;2023-10-13T06:59:31;23.52;;;8.02;;
37955;SDS011;23776;51.592;7.180;2023-10-13T07:02:01;18.90;;;7.95;;
37955;SDS011;23776;51.592;7.180;2023-10-13T07:04:30;21.73;;;8.02;;
37955;SDS011;23776;51.592;7.180;2023-10-13T07:06:56;21.15;;;9.38;;
37955;SDS011;23776;51.592;7.180;2023-10-13T07:09:21;18.58;;;8.05;;
37955;SDS011;23776;51.592;7.180;2023-10-13T07:12:13;22.00;;;8.00;;
37955;SDS011;23776;51.592;7.180;2023-10-13T07:14:45;27.33;;;7.90;;
37955;SDS011;23776;51.592;7.180;2023-10-13T07:17:17;20.42;;;8.38;;
37955;SDS011;23776;51.592;7.180;2023-10-13T07:19:52;22.02;;;9.13;;
37955;SDS011;23776;51.592;7.180;2023-10-13T07:22:18;15.30;;;7.40;;
37955;SDS011;23776;51.592;7.180;2023-10-13T07:24:45;16.63;;;8.13;;
37955;SDS011;23776;51.592;7.180;2023-10-13T07:27:21;21.35;;;8.60;;
37955;SDS011;23776;51.592;7.180;2023-10-13T07:29:51;22.05;;;7.85;;
37955;SDS011;23776;51.592;7.180;2023-10-13T07:32:38;17.77;;;8.45;;
37955;SDS011;23776;51.592;7.180;2023-10-13T07:35:10;16.95;;;8.15;;
37955;SDS011;23776;51.592;7.180;2023-10-13T07:37:49;21.63;;;7.20;;
37955;SDS011;23776;51.592;7.180;2023-10-13T07:40:17;20.48;;;7.65;;
37955;SDS011;23776;51.592;7.180;2023-10-13T07:42:52;26.23;;;8.52;;
37955;SDS011;23776;51.592;7.180;2023-10-13T07:45:38;20.08;;;7.70;;
37955;SDS011;23776;51.592;7.180;2023-10-13T07:48:06;22.58;;;7.75;;
37955;SDS011;23776;51.592;7.180;2023-10-13T07:50:45;23.48;;;7.57;;
37955;SDS011;23776;51.592;7.180;2023-10-13T07:53:11;22.45;;;8.55;;
37955;SDS011;23776;51.592;7.180;2023-10-13T07:55:52;22.48;;;7.63;;
37955;SDS011;23776;51.592;7.180;2023-10-13T07:58:21;24.40;;;8.30;;
37955;SDS011;23776;51.592;7.180;2023-10-13T08:00:50;19.88;;;9.23;;
37955;SDS011;23776;51.592;7.180;2023-10-13T08:03:45;19.75;;;7.65;;
37955;SDS011;23776;51.592;7.180;2023-10-13T08:06:17;14.70;;;7.70;;
37955;SDS011;23776;51.592;7.180;2023-10-13T08:08:43;21.38;;;8.02;;
37955;SDS011;23776;51.592;7.180;2023-10-13T08:11:15;23.20;;;7.60;;
37955;SDS011;23776;51.592;7.180;2023-10-13T08:13:55;18.40;;;7.80;;
37955;SDS011;23776;51.592;7.180;2023-10-13T08:16:25;14.35;;;6.70;;
37955;SDS011;23776;51.592;7.180;2023-10-13T08:19:10;19.15;;;7.07;;
37955;SDS011;23776;51.592;7.180;2023-10-13T08:21:40;17.80;;;6.35;;
37955;SDS011;23776;51.592;7.180;2023-10-13T08:24:19;20.65;;;6.85;;
37955;SDS011;23776;51.592;7.180;2023-10-13T08:26:54;19.08;;;7.13;;
37955;SDS011;23776;51.592;7.180;2023-10-13T08:29:43;14.30;;;6.57;;
37955;SDS011;23776;51.592;7.180;2023-10-13T08:32:19;16.25;;;6.70;;
37955;SDS011;23776;51.592;7.180;2023-10-13T08:35:01;21.58;;;6.85;;
37955;SDS011;23776;51.592;7.180;2023-10-13T08:37:30;20.05;;;6.70;;
37955;SDS011;23776;51.592;7.180;2023-10-13T08:40:12;18.70;;;6.22;;
37955;SDS011;23776;51.592;7.180;2023-10-13T08:42:57;18.88;;;6.68;;
37955;SDS011;23776;51.592;7.180;2023-10-13T08:45:28;21.55;;;7.05;;
37955;SDS011;23776;51.592;7.180;2023-10-13T08:47:58;18.95;;;6.30;;
37955;SDS011;23776;51.592;7.180;2023-10-13T08:50:33;16.13;;;6.18;;
37955;SDS011;23776;51.592;7.180;2023-10-13T08:53:16;23.27;;;7.07;;
37955;SDS011;23776;51.592;7.180;2023-10-13T08:55:51;17.88;;;5.75;;
37955;SDS011;23776;51.592;7.180;2023-10-13T08:58:38;13.02;;;4.65;;
37955;SDS011;23776;51.592;7.180;2023-10-13T09:01:21;13.18;;;5.97;;
37955;SDS011;23776;51.592;7.180;2023-10-13T09:12:23;19.52;;;6.13;;
37955;SDS011;23776;51.592;7.180;2023-10-13T09:14:59;13.82;;;4.97;;
37955;SDS011;23776;51.592;7.180;2023-10-13T09:17:48;16.48;;;4.95;;
37955;SDS011;23776;51.592;7.180;2023-10-13T09:20:28;18.63;;;4.45;;
37955;SDS011;23776;51.592;7.180;2023-10-13T09:23:14;16.60;;;5.13;;
37955;SDS011;23776;51.592;7.180;2023-10-13T09:26:09;13.07;;;5.80;;
37955;SDS011;23776;51.592;7.180;2023-10-13T09:28:37;21.02;;;5.68;;
37955;SDS011;23776;51.592;7.180;2023-10-13T09:31:02;13.68;;;4.82;;
37955;SDS011;23776;51.592;7.180;2023-10-13T09:33:32;16.75;;;4.70;;
37955;SDS011;23776;51.592;7.180;2023-10-13T09:36:01;15.60;;;4.85;;
37955;SDS011;23776;51.592;7.180;2023-10-13T09:38:35;14.77;;;5.28;;
37955;SDS011;23776;51.592;7.180;2023-10-13T09:41:04;18.45;;;5.55;;
37955;SDS011;23776;51.592;7.180;2023-10-13T09:43:51;14.98;;;5.95;;
37955;SDS011;23776;51.592;7.180;2023-10-13T09:46:20;10.63;;;5.20;;
37955;SDS011;23776;51.592;7.180;2023-10-13T09:48:52;14.00;;;5.10;;
37955;SDS011;23776;51.592;7.180;2023-10-13T09:51:33;15.65;;;5.90;;
37955;SDS011;23776;51.592;7.180;2023-10-13T09:56:53;18.50;;;6.13;;
37955;SDS011;23776;51.592;7.180;2023-10-13T09:59:23;19.00;;;5.43;;
37955;SDS011;23776;51.592;7.180;2023-10-13T10:02:00;12.25;;;5.07;;
37955;SDS011;23776;51.592;7.180;2023-10-13T10:04:34;21.70;;;5.20;;
37955;SDS011;23776;51.592;7.180;2023-10-13T10:07:10;21.77;;;6.72;;
37955;SDS011;23776;51.592;7.180;2023-10-13T10:09:36;12.73;;;5.35;;
37955;SDS011;23776;51.592;7.180;2023-10-13T10:15:13;14.32;;;5.68;;
37955;SDS011;23776;51.592;7.180;2023-10-13T10:17:56;20.17;;;5.50;;
37955;SDS011;23776;51.592;7.180;2023-10-13T10:20:31;16.77;;;5.20;;
37955;SDS011;23776;51.592;7.180;2023-10-13T10:23:07;18.83;;;5.10;;
37955;SDS011;23776;51.592;7.180;2023-10-13T10:25:37;13.80;;;5.57;;
37955;SDS011;23776;51.592;7.180;2023-10-13T10:28:04;16.35;;;5.55;;
37955;SDS011;23776;51.592;7.180;2023-10-13T10:30:32;15.68;;;5.60;;
37955;SDS011;23776;51.592;7.180;2023-10-13T10:33:03;14.35;;;5.40;;
37955;SDS011;23776;51.592;7.180;2023-10-13T10:35:37;21.92;;;6.53;;
37955;SDS011;23776;51.592;7.180;2023-10-13T10:38:10;14.20;;;6.35;;
37955;SDS011;23776;51.592;7.180;2023-10-13T10:40:57;19.75;;;6.03;;
37955;SDS011;23776;51.592;7.180;2023-10-13T10:43:35;15.38;;;5.95;;
37955;SDS011;23776;51.592;7.180;2023-10-13T10:46:15;19.02;;;5.80;;
37955;SDS011;23776;51.592;7.180;2023-10-13T10:48:50;20.02;;;6.85;;
37955;SDS011;23776;51.592;7.180;2023-10-13T10:51:21;20.20;;;5.60;;
37955;SDS011;23776;51.592;7.180;2023-10-13T10:53:48;17.33;;;6.18;;
37955;SDS011;23776;51.592;7.180;2023-10-13T10:56:17;12.95;;;5.43;;
37955;SDS011;23776;51.592;7.180;2023-10-13T10:58:50;14.10;;;5.65;;
37955;SDS011;23776;51.592;7.180;2023-10-13T11:01:23;16.52;;;6.60;;
37955;SDS011;23776;51.592;7.180;2023-10-13T11:03:59;18.75;;;6.72;;
37955;SDS011;23776;51.592;7.180;2023-10-13T11:06:49;10.85;;;6.40;;
37955;SDS011;23776;51.592;7.180;2023-10-13T11:09:33;20.63;;;6.22;;
37955;SDS011;23776;51.592;7.180;2023-10-13T11:14:44;13.52;;;6.28;;
37955;SDS011;23776;51.592;7.180;2023-10-13T11:17:19;15.68;;;5.82;;
37955;SDS011;23776;51.592;7.180;2023-10-13T11:19:54;17.77;;;6.25;;
37955;SDS011;23776;51.592;7.180;2023-10-13T11:22:20;15.52;;;6.43;;
37955;SDS011;23776;51.592;7.180;2023-10-13T11:25:06;17.27;;;6.75;;
37955;SDS011;23776;51.592;7.180;2023-10-13T11:27:40;15.63;;;6.43;;
37955;SDS011;23776;51.592;7.180;2023-10-13T11:30:12;18.65;;;6.28;;
37955;SDS011;23776;51.592;7.180;2023-10-13T11:32:43;14.35;;;6.93;;
37955;SDS011;23776;51.592;7.180;2023-10-13T11:35:09;12.23;;;6.30;;
37955;SDS011;23776;51.592;7.180;2023-10-13T11:37:50;15.20;;;5.82;;
37955;SDS011;23776;51.592;7.180;2023-10-13T11:40:28;17.30;;;6.07;;
37955;SDS011;23776;51.592;7.180;2023-10-13T11:43:12;15.68;;;6.50;;
37955;SDS011;23776;51.592;7.180;2023-10-13T11:45:41;16.05;;;6.13;;
37955;SDS011;23776;51.592;7.180;2023-10-13T11:48:38;15.48;;;6.32;;
37955;SDS011;23776;51.592;7.180;2023-10-13T11:51:07;18.08;;;6.50;;
37955;SDS011;23776;51.592;7.180;2023-10-13T11:56:00;16.17;;;6.72;;
37955;SDS011;23776;51.592;7.180;2023-10-13T11:58:26;17.00;;;6.70;;
37955;SDS011;23776;51.592;7.180;2023-10-13T12:00:55;19.77;;;6.68;;
37955;SDS011;23776;51.592;7.180;2023-10-13T12:03:44;15.32;;;6.20;;
37955;SDS011;23776;51.592;7.180;2023-10-13T12:06:30;14.25;;;6.38;;
37955;SDS011;23776;51.592;7.180;2023-10-13T12:11:41;13.10;;;6.00;;
37955;SDS011;23776;51.592;7.180;2023-10-13T12:14:14;23.73;;;7.05;;
37955;SDS011;23776;51.592;7.180;2023-10-13T12:16:46;14.98;;;6.18;;
37955;SDS011;23776;51.592;7.180;2023-10-13T12:19:22;18.13;;;6.50;;
37955;SDS011;23776;51.592;7.180;2023-10-13T12:21:52;20.17;;;6.30;;
37955;SDS011;23776;51.592;7.180;2023-10-13T12:27:04;13.57;;;6.05;;
37955;SDS011;23776;51.592;7.180;2023-10-13T12:32:16;19.42;;;5.70;;
37955;SDS011;23776;51.592;7.180;2023-10-13T12:34:47;20.95;;;6.18;;
37955;SDS011;23776;51.592;7.180;2023-10-13T12:37:31;17.70;;;6.68;;
37955;SDS011;23776;51.592;7.180;2023-10-13T12:40:24;19.08;;;6.47;;
37955;SDS011;23776;51.592;7.180;2023-10-13T12:43:08;20.10;;;7.18;;
37955;SDS011;23776;51.592;7.180;2023-10-13T12:45:52;23.70;;;6.43;;
37955;SDS011;23776;51.592;7.180;2023-10-13T12:48:37;21.02;;;5.35;;
37955;SDS011;23776;51.592;7.180;2023-10-13T12:51:24;24.60;;;7.18;;
37955;SDS011;23776;51.592;7.180;2023-10-13T12:53:58;21.83;;;6.78;;
37955;SDS011;23776;51.592;7.180;2023-10-13T12:56:45;16.15;;;5.55;;
37955;SDS011;23776;51.592;7.180;2023-10-13T12:59:10;22.27;;;6.65;;
37955;SDS011;23776;51.592;7.180;2023-10-13T13:01:40;29.42;;;6.82;;
37955;SDS011;23776;51.592;7.180;2023-10-13T13:04:09;17.48;;;5.78;;
37955;SDS011;23776;51.592;7.180;2023-10-13T13:06:50;18.25;;;6.30;;
37955;SDS011;23776;51.592;7.180;2023-10-13T13:09:16;18.60;;;6.03;;
37955;SDS011;23776;51.592;7.180;2023-10-13T13:11:51;18.85;;;6.60;;
37955;SDS011;23776;51.592;7.180;2023-10-13T13:14:17;18.70;;;5.40;;
37955;SDS011;23776;51.592;7.180;2023-10-13T13:16:42;19.52;;;6.22;;
37955;SDS011;23776;51.592;7.180;2023-10-13T13:19:13;13.13;;;6.00;;
37955;SDS011;23776;51.592;7.180;2023-10-13T13:21:39;25.58;;;6.68;;
37955;SDS011;23776;51.592;7.180;2023-10-13T13:24:05;20.73;;;6.57;;
37955;SDS011;23776;51.592;7.180;2023-10-13T13:26:39;19.13;;;6.50;;
37955;SDS011;23776;51.592;7.180;2023-10-13T13:29:05;19.05;;;5.75;;
37955;SDS011;23776;51.592;7.180;2023-10-13T13:31:34;22.83;;;6.70;;
37955;SDS011;23776;51.592;7.180;2023-10-13T13:34:06;23.33;;;6.63;;
37955;SDS011;23776;51.592;7.180;2023-10-13T13:36:34;23.63;;;7.10;;
37955;SDS011;23776;51.592;7.180;2023-10-13T13:39:00;23.23;;;5.85;;
37955;SDS011;23776;51.592;7.180;2023-10-13T13:41:25;18.02;;;6.65;;
37955;SDS011;23776;51.592;7.180;2023-10-13T13:43:51;31.73;;;6.28;;
37955;SDS011;23776;51.592;7.180;2023-10-13T13:46:22;19.67;;;6.28;;
37955;SDS011;23776;51.592;7.180;2023-10-13T13:48:50;25.77;;;6.70;;
37955;SDS011;23776;51.592;7.180;2023-10-13T13:51:16;30.33;;;5.78;;
37955;SDS011;23776;51.592;7.180;2023-10-13T13:53:51;18.92;;;5.75;;
37955;SDS011;23776;51.592;7.180;2023-10-13T13:56:18;23.75;;;6.03;;
37955;SDS011;23776;51.592;7.180;2023-10-13T13:58:44;27.02;;;7.03;;
37955;SDS011;23776;51.592;7.180;2023-10-13T14:01:11;20.38;;;5.90;;
37955;SDS011;23776;51.592;7.180;2023-10-13T14:03:46;27.42;;;5.90;;
37955;SDS011;23776;51.592;7.180;2023-10-13T14:06:16;21.42;;;5.70;;
37955;SDS011;23776;51.592;7.180;2023-10-13T14:08:48;16.77;;;5.30;;
37955;SDS011;23776;51.592;7.180;2023-10-13T14:11:16;25.27;;;6.50;;
37955;SDS011;23776;51.592;7.180;2023-10-13T14:14:01;18.60;;;4.97;;
37955;SDS011;23776;51.592;7.180;2023-10-13T14:16:29;18.38;;;5.15;;
37955;SDS011;23776;51.592;7.180;2023-10-13T14:18:58;23.08;;;6.47;;
37955;SDS011;23776;51.592;7.180;2023-10-13T14:21:26;21.23;;;5.53;;
37955;SDS011;23776;51.592;7.180;2023-10-13T14:23:52;19.30;;;5.88;;
37955;SDS011;23776;51.592;7.180;2023-10-13T14:26:18;18.15;;;5.78;;
37955;SDS011;23776;51.592;7.180;2023-10-13T14:28:49;29.75;;;6.20;;
37955;SDS011;23776;51.592;7.180;2023-10-13T14:31:32;21.67;;;7.07;;
37955;SDS011;23776;51.592;7.180;2023-10-13T14:34:01;18.20;;;6.63;;
37955;SDS011;23776;51.592;7.180;2023-10-13T14:36:27;11.07;;;5.43;;
37955;SDS011;23776;51.592;7.180;2023-10-13T14:38:59;23.10;;;6.38;;
37955;SDS011;23776;51.592;7.180;2023-10-13T14:41:25;24.95;;;6.63;;
37955;SDS011;23776;51.592;7.180;2023-10-13T14:43:51;21.98;;;7.00;;
37955;SDS011;23776;51.592;7.180;2023-10-13T14:46:17;28.48;;;5.93;;
37955;SDS011;23776;51.592;7.180;2023-10-13T14:48:53;17.00;;;5.95;;
37955;SDS011;23776;51.592;7.180;2023-10-13T14:51:19;19.77;;;5.80;;
37955;SDS011;23776;51.592;7.180;2023-10-13T14:53:45;19.23;;;5.97;;
37955;SDS011;23776;51.592;7.180;2023-10-13T14:56:12;16.85;;;5.18;;
37955;SDS011;23776;51.592;7.180;2023-10-13T14:58:39;20.50;;;5.03;;
37955;SDS011;23776;51.592;7.180;2023-10-13T15:01:11;18.60;;;5.15;;
37955;SDS011;23776;51.592;7.180;2023-10-13T15:03:43;19.27;;;5.35;;
37955;SDS011;23776;51.592;7.180;2023-10-13T15:08:45;14.43;;;5.10;;
37955;SDS011;23776;51.592;7.180;2023-10-13T15:11:12;21.60;;;6.05;;
37955;SDS011;23776;51.592;7.180;2023-10-13T15:13:39;25.80;;;5.65;;
37955;SDS011;23776;51.592;7.180;2023-10-13T15:16:15;11.52;;;4.75;;
37955;SDS011;23776;51.592;7.180;2023-10-13T15:18:44;21.75;;;5.78;;
37955;SDS011;23776;51.592;7.180;2023-10-13T15:21:11;18.70;;;5.82;;
37955;SDS011;23776;51.592;7.180;2023-10-13T15:23:48;14.43;;;5.32;;
37955;SDS011;23776;51.592;7.180;2023-10-13T15:26:16;20.58;;;5.72;;
37955;SDS011;23776;51.592;7.180;2023-10-13T15:28:46;28.42;;;6.50;;
37955;SDS011;23776;51.592;7.180;2023-10-13T15:31:20;19.73;;;6.10;;
37955;SDS011;23776;51.592;7.180;2023-10-13T15:33:58;17.50;;;5.93;;
37955;SDS011;23776;51.592;7.180;2023-10-13T15:36:24;17.38;;;6.15;;
37955;SDS011;23776;51.592;7.180;2023-10-13T15:38:51;19.10;;;5.30;;
37955;SDS011;23776;51.592;7.180;2023-10-13T15:41:24;26.08;;;6.45;;
37955;SDS011;23776;51.592;7.180;2023-10-13T15:43:50;18.38;;;5.07;;
37955;SDS011;23776;51.592;7.180;2023-10-13T15:46:17;17.30;;;5.22;;
37955;SDS011;23776;51.592;7.180;2023-10-13T15:48:45;20.23;;;5.47;;
37955;SDS011;23776;51.592;7.180;2023-10-13T15:51:14;15.38;;;4.97;;